sensor_id;sensor_type;location;lat;lon;timestamp;pressure;altitude;pressure_sealevel;temperature;humidity
51227;BME280;42714;48.260;10.980;2024-03-07T00:02:37;974.6;;;4.5;100.0
51227;BME280;42714;48.260;10.980;2024-03-07T00:07:38;974.6;;;4.5;100.0
51227;BME280;42714;48.260;10.980;2024-03-07T00:12:39;974.7;;;4.6;100.0
51227;BME280;42714;48.260;10.980;2024-03-07T00:17:40;974.7;;;4.6;100.0
51227;BME280;42714;48.260;10.980;2024-03-07T00:22:41;974.7;;;4.4;100.0
51227;BME280;42714;48.260;10.980;2024-03-07T00:27:42;974.7;;;4.5;100.0
51227;BME280;42714;48.260;10.980;2024-03-07T00:32:44;974.7;;;4.4;100.0
51227;BME280;42714;48.260;10.980;2024-03-07T00:37:44;974.6;;;4.5;100.0
51227;BME280;42714;48.260;10.980;2024-03-07T00:42:45;974.7;;;4.5;100.0
51227;BME280;42714;48.260;10.980;2024-03-07T00:47:46;974.6;;;4.5;100.0
51227;BME280;42714;48.260;10.980;2024-03-07T00:52:47;974.6;;;4.6;100.0
51227;BME280;42714;48.260;10.980;2024-03-07T00:57:48;974.6;;;4.5;100.0
51227;BME280;42714;48.260;10.980;2024-03-07T01:02:49;974.5;;;4.5;100.0
51227;BME280;42714;48.260;10.980;2024-03-07T01:07:50;974.5;;;4.6;100.0
51227;BME280;42714;48.260;10.980;2024-03-07T01:12:51;974.4;;;4.5;100.0
51227;BME280;42714;48.260;10.980;2024-03-07T01:17:52;974.4;;;4.4;100.0
51227;BME280;42714;48.260;10.980;2024-03-07T01:22:53;974.4;;;4.3;100.0
51227;BME280;42714;48.260;10.980;2024-03-07T01:27:54;974.4;;;4.3;100.0
51227;BME280;42714;48.260;10.980;2024-03-07T01:32:55;974.3;;;4.3;100.0
51227;BME280;42714;48.260;10.980;2024-03-07T01:37:56;974.3;;;4.3;100.0
51227;BME280;42714;48.260;10.980;2024-03-07T01:42:57;974.2;;;4.3;100.0
51227;BME280;42714;48.260;10.980;2024-03-07T01:47:59;974.2;;;4.4;100.0
51227;BME280;42714;48.260;10.980;2024-03-07T01:52:59;974.1;;;4.5;100.0
51227;BME280;42714;48.260;10.980;2024-03-07T01:58:01;974.0;;;4.4;100.0
51227;BME280;42714;48.260;10.980;2024-03-07T02:03:01;973.9;;;4.4;100.0
51227;BME280;42714;48.260;10.980;2024-03-07T02:08:03;973.9;;;4.5;100.0
51227;BME280;42714;48.260;10.980;2024-03-07T02:13:04;973.9;;;4.7;100.0
51227;BME280;42714;48.260;10.980;2024-03-07T02:18:04;973.8;;;4.7;100.0
51227;BME280;42714;48.260;10.980;2024-03-07T02:23:05;973.8;;;4.8;100.0
51227;BME280;42714;48.260;10.980;2024-03-07T02:28:06;973.7;;;4.9;100.0
51227;BME280;42714;48.260;10.980;2024-03-07T02:33:07;973.7;;;4.9;100.0
51227;BME280;42714;48.260;10.980;2024-03-07T02:38:08;973.7;;;5.0;100.0
51227;BME280;42714;48.260;10.980;2024-03-07T02:43:09;973.6;;;4.9;100.0
51227;BME280;42714;48.260;10.980;2024-03-07T02:48:10;973.6;;;4.9;100.0
51227;BME280;42714;48.260;10.980;2024-03-07T02:53:11;973.6;;;5.1;100.0
51227;BME280;42714;48.260;10.980;2024-03-07T02:58:12;973.6;;;5.3;100.0
51227;BME280;42714;48.260;10.980;2024-03-07T03:03:13;973.6;;;5.1;100.0
51227;BME280;42714;48.260;10.980;2024-03-07T03:08:14;973.7;;;5.0;100.0
51227;BME280;42714;48.260;10.980;2024-03-07T03:13:15;973.7;;;4.9;100.0
51227;BME280;42714;48.260;10.980;2024-03-07T03:18:16;973.6;;;4.9;100.0
51227;BME280;42714;48.260;10.980;2024-03-07T03:23:18;973.6;;;4.8;100.0
51227;BME280;42714;48.260;10.980;2024-03-07T03:28:19;973.6;;;4.7;100.0
51227;BME280;42714;48.260;10.980;2024-03-07T03:33:19;973.6;;;4.7;100.0
51227;BME280;42714;48.260;10.980;2024-03-07T03:38:20;973.6;;;4.6;100.0
51227;BME280;42714;48.260;10.980;2024-03-07T03:43:21;973.6;;;4.5;100.0
51227;BME280;42714;48.260;10.980;2024-03-07T03:48:22;973.5;;;4.4;100.0
51227;BME280;42714;48.260;10.980;2024-03-07T03:53:23;973.5;;;4.3;100.0
51227;BME280;42714;48.260;10.980;2024-03-07T03:58:24;973.5;;;4.4;100.0
51227;BME280;42714;48.260;10.980;2024-03-07T04:03:25;973.5;;;4.4;100.0
51227;BME280;42714;48.260;10.980;2024-03-07T04:08:26;973.5;;;4.4;100.0
51227;BME280;42714;48.260;10.980;2024-03-07T04:13:27;973.6;;;4.3;100.0
51227;BME280;42714;48.260;10.980;2024-03-07T04:18:28;973.6;;;4.2;100.0
51227;BME280;42714;48.260;10.980;2024-03-07T04:23:29;973.6;;;4.0;100.0
51227;BME280;42714;48.260;10.980;2024-03-07T04:28:30;973.6;;;4.0;100.0
51227;BME280;42714;48.260;10.980;2024-03-07T04:33:31;973.6;;;3.8;100.0
51227;BME280;42714;48.260;10.980;2024-03-07T04:38:32;973.6;;;3.8;99.5
51227;BME280;42714;48.260;10.980;2024-03-07T04:43:33;973.6;;;3.7;98.7
51227;BME280;42714;48.260;10.980;2024-03-07T04:48:35;973.6;;;3.7;98.6
51227;BME280;42714;48.260;10.980;2024-03-07T04:53:35;973.6;;;3.7;99.1
51227;BME280;42714;48.260;10.980;2024-03-07T04:58:37;973.6;;;3.6;98.3
51227;BME280;42714;48.260;10.980;2024-03-07T05:03:38;973.6;;;3.5;98.0
51227;BME280;42714;48.260;10.980;2024-03-07T05:08:39;973.6;;;3.4;98.2
51227;BME280;42714;48.260;10.980;2024-03-07T05:13:40;973.6;;;3.2;98.7
51227;BME280;42714;48.260;10.980;2024-03-07T05:18:41;973.6;;;3.0;99.2
51227;BME280;42714;48.260;10.980;2024-03-07T05:23:42;973.6;;;2.8;99.0
51227;BME280;42714;48.260;10.980;2024-03-07T05:28:43;973.7;;;2.6;99.1
51227;BME280;42714;48.260;10.980;2024-03-07T05:33:44;973.6;;;2.5;99.8
51227;BME280;42714;48.260;10.980;2024-03-07T05:38:45;973.7;;;2.5;100.0
51227;BME280;42714;48.260;10.980;2024-03-07T05:43:46;973.7;;;2.5;100.0
51227;BME280;42714;48.260;10.980;2024-03-07T05:48:47;973.7;;;2.7;100.0
51227;BME280;42714;48.260;10.980;2024-03-07T05:53:48;973.8;;;2.7;100.0
51227;BME280;42714;48.260;10.980;2024-03-07T05:58:49;973.7;;;2.7;100.0
51227;BME280;42714;48.260;10.980;2024-03-07T06:03:50;973.8;;;2.7;99.9
51227;BME280;42714;48.260;10.980;2024-03-07T06:08:51;973.7;;;2.8;99.8
51227;BME280;42714;48.260;10.980;2024-03-07T06:13:52;973.7;;;2.8;99.5
51227;BME280;42714;48.260;10.980;2024-03-07T06:18:53;973.7;;;2.9;98.5
51227;BME280;42714;48.260;10.980;2024-03-07T06:23:54;973.7;;;2.9;97.8
51227;BME280;42714;48.260;10.980;2024-03-07T06:28:55;973.8;;;3.1;97.8
51227;BME280;42714;48.260;10.980;2024-03-07T06:33:56;973.8;;;3.4;96.0
51227;BME280;42714;48.260;10.980;2024-03-07T06:38:57;973.8;;;3.5;93.8
51227;BME280;42714;48.260;10.980;2024-03-07T06:43:58;973.8;;;3.6;92.2
51227;BME280;42714;48.260;10.980;2024-03-07T06:48:59;973.8;;;4.0;91.1
51227;BME280;42714;48.260;10.980;2024-03-07T06:54:00;973.7;;;4.7;88.2
51227;BME280;42714;48.260;10.980;2024-03-07T06:59:01;973.7;;;5.5;83.6
51227;BME280;42714;48.260;10.980;2024-03-07T07:04:02;973.7;;;5.7;79.7
51227;BME280;42714;48.260;10.980;2024-03-07T07:09:03;973.7;;;6.1;76.1
51227;BME280;42714;48.260;10.980;2024-03-07T07:14:04;973.7;;;6.7;75.4
51227;BME280;42714;48.260;10.980;2024-03-07T07:19:05;973.6;;;7.5;71.5
51227;BME280;42714;48.260;10.980;2024-03-07T07:24:06;973.5;;;8.3;67.6
51227;BME280;42714;48.260;10.980;2024-03-07T07:29:07;973.5;;;8.4;64.1
51227;BME280;42714;48.260;10.980;2024-03-07T07:34:08;973.5;;;8.5;63.9
51227;BME280;42714;48.260;10.980;2024-03-07T07:39:09;973.6;;;7.8;64.7
51227;BME280;42714;48.260;10.980;2024-03-07T07:44:10;973.6;;;7.1;66.9
51227;BME280;42714;48.260;10.980;2024-03-07T07:49:11;973.6;;;6.9;68.1
51227;BME280;42714;48.260;10.980;2024-03-07T07:59:13;973.6;;;6.3;69.9
51227;BME280;42714;48.260;10.980;2024-03-07T08:04:14;973.5;;;6.1;70.2
51227;BME280;42714;48.260;10.980;2024-03-07T08:09:15;973.5;;;6.1;72.3
51227;BME280;42714;48.260;10.980;2024-03-07T08:14:16;973.5;;;6.1;72.3
51227;BME280;42714;48.260;10.980;2024-03-07T08:19:17;973.5;;;6.3;72.8
51227;BME280;42714;48.260;10.980;2024-03-07T08:24:18;973.5;;;6.2;72.7
51227;BME280;42714;48.260;10.980;2024-03-07T08:29:19;973.5;;;6.0;72.7
51227;BME280;42714;48.260;10.980;2024-03-07T08:34:20;973.4;;;6.3;73.9
51227;BME280;42714;48.260;10.980;2024-03-07T08:39:21;973.4;;;6.4;72.6
51227;BME280;42714;48.260;10.980;2024-03-07T08:44:22;973.3;;;6.6;72.4
51227;BME280;42714;48.260;10.980;2024-03-07T08:49:23;973.3;;;6.7;70.5
51227;BME280;42714;48.260;10.980;2024-03-07T08:54:24;973.3;;;6.4;70.4
51227;BME280;42714;48.260;10.980;2024-03-07T08:59:25;973.3;;;6.4;70.0
51227;BME280;42714;48.260;10.980;2024-03-07T09:04:26;973.3;;;6.2;71.5
51227;BME280;42714;48.260;10.980;2024-03-07T09:09:27;973.4;;;5.8;73.4
51227;BME280;42714;48.260;10.980;2024-03-07T09:14:28;973.4;;;5.4;75.0
51227;BME280;42714;48.260;10.980;2024-03-07T09:19:29;973.4;;;5.4;76.0
51227;BME280;42714;48.260;10.980;2024-03-07T09:24:30;973.3;;;5.5;76.2
51227;BME280;42714;48.260;10.980;2024-03-07T09:29:31;973.3;;;5.3;76.7
51227;BME280;42714;48.260;10.980;2024-03-07T09:34:32;973.3;;;5.3;78.3
51227;BME280;42714;48.260;10.980;2024-03-07T09:39:33;973.3;;;5.5;77.9
51227;BME280;42714;48.260;10.980;2024-03-07T09:44:34;973.3;;;5.3;78.3
51227;BME280;42714;48.260;10.980;2024-03-07T09:49:35;973.3;;;5.4;78.2
51227;BME280;42714;48.260;10.980;2024-03-07T09:54:36;973.3;;;5.3;78.9
51227;BME280;42714;48.260;10.980;2024-03-07T09:59:37;973.3;;;5.5;78.7
51227;BME280;42714;48.260;10.980;2024-03-07T10:04:43;973.3;;;5.6;78.9
51227;BME280;42714;48.260;10.980;2024-03-07T10:09:39;973.3;;;5.6;78.0
51227;BME280;42714;48.260;10.980;2024-03-07T10:19:41;973.3;;;5.6;80.0
51227;BME280;42714;48.260;10.980;2024-03-07T10:24:52;973.2;;;5.9;78.3
51227;BME280;42714;48.260;10.980;2024-03-07T10:29:43;973.1;;;6.5;76.5
51227;BME280;42714;48.260;10.980;2024-03-07T10:34:44;973.1;;;6.9;74.2
51227;BME280;42714;48.260;10.980;2024-03-07T10:39:45;973.1;;;7.3;72.8
51227;BME280;42714;48.260;10.980;2024-03-07T10:44:46;973.1;;;7.3;73.4
51227;BME280;42714;48.260;10.980;2024-03-07T10:50:09;973.1;;;7.4;72.4
51227;BME280;42714;48.260;10.980;2024-03-07T10:54:57;973.0;;;7.3;73.7
51227;BME280;42714;48.260;10.980;2024-03-07T10:59:50;973.0;;;7.8;73.3
51227;BME280;42714;48.260;10.980;2024-03-07T11:04:50;973.0;;;8.1;72.3
51227;BME280;42714;48.260;10.980;2024-03-07T11:09:51;973.0;;;8.2;70.9
51227;BME280;42714;48.260;10.980;2024-03-07T11:14:52;972.9;;;8.3;70.5
51227;BME280;42714;48.260;10.980;2024-03-07T11:19:53;972.8;;;8.8;67.8
51227;BME280;42714;48.260;10.980;2024-03-07T11:25:40;972.7;;;9.4;64.8
51227;BME280;42714;48.260;10.980;2024-03-07T11:29:55;972.7;;;9.3;63.0
51227;BME280;42714;48.260;10.980;2024-03-07T11:34:56;972.7;;;9.1;64.2
51227;BME280;42714;48.260;10.980;2024-03-07T11:39:57;972.6;;;9.2;65.9
51227;BME280;42714;48.260;10.980;2024-03-07T11:44:59;972.4;;;9.8;62.4
51227;BME280;42714;48.260;10.980;2024-03-07T11:49:59;972.4;;;9.9;61.2
51227;BME280;42714;48.260;10.980;2024-03-07T11:55:00;972.4;;;10.5;59.4
51227;BME280;42714;48.260;10.980;2024-03-07T12:00:01;972.3;;;9.7;61.7
51227;BME280;42714;48.260;10.980;2024-03-07T12:05:02;972.2;;;9.3;62.3
51227;BME280;42714;48.260;10.980;2024-03-07T12:10:04;972.2;;;8.9;64.2
51227;BME280;42714;48.260;10.980;2024-03-07T12:15:05;972.2;;;8.7;64.5
51227;BME280;42714;48.260;10.980;2024-03-07T12:25:06;972.1;;;9.1;62.9
51227;BME280;42714;48.260;10.980;2024-03-07T12:35:08;972.0;;;9.1;62.3
51227;BME280;42714;48.260;10.980;2024-03-07T12:40:11;972.0;;;10.3;59.8
51227;BME280;42714;48.260;10.980;2024-03-07T12:45:10;971.8;;;11.7;55.5
51227;BME280;42714;48.260;10.980;2024-03-07T12:50:11;971.9;;;10.3;57.2
51227;BME280;42714;48.260;10.980;2024-03-07T12:55:12;971.8;;;8.8;61.6
51227;BME280;42714;48.260;10.980;2024-03-07T13:00:14;971.8;;;8.1;65.0
51227;BME280;42714;48.260;10.980;2024-03-07T13:05:14;971.9;;;7.8;67.1
51227;BME280;42714;48.260;10.980;2024-03-07T13:10:15;971.9;;;7.9;67.8
51227;BME280;42714;48.260;10.980;2024-03-07T13:15:16;971.8;;;7.7;68.4
51227;BME280;42714;48.260;10.980;2024-03-07T13:20:17;971.8;;;7.8;68.1
51227;BME280;42714;48.260;10.980;2024-03-07T13:25:20;971.8;;;7.7;68.8
51227;BME280;42714;48.260;10.980;2024-03-07T13:30:19;971.7;;;7.8;67.3
51227;BME280;42714;48.260;10.980;2024-03-07T13:35:20;971.7;;;8.0;67.4
51227;BME280;42714;48.260;10.980;2024-03-07T13:40:22;971.7;;;8.3;65.4
51227;BME280;42714;48.260;10.980;2024-03-07T13:45:23;971.6;;;8.3;65.4
51227;BME280;42714;48.260;10.980;2024-03-07T13:50:24;971.6;;;8.3;65.2
51227;BME280;42714;48.260;10.980;2024-03-07T13:55:24;971.6;;;8.5;64.8
51227;BME280;42714;48.260;10.980;2024-03-07T14:00:28;971.5;;;8.8;64.4
51227;BME280;42714;48.260;10.980;2024-03-07T14:05:32;971.5;;;8.8;63.4
51227;BME280;42714;48.260;10.980;2024-03-07T14:10:33;971.5;;;8.7;63.0
51227;BME280;42714;48.260;10.980;2024-03-07T14:15:38;971.5;;;8.9;61.7
51227;BME280;42714;48.260;10.980;2024-03-07T14:40:33;971.4;;;8.8;62.2
51227;BME280;42714;48.260;10.980;2024-03-07T14:45:39;971.4;;;8.8;63.0
51227;BME280;42714;48.260;10.980;2024-03-07T14:50:35;971.4;;;8.6;63.3
51227;BME280;42714;48.260;10.980;2024-03-07T14:55:38;971.3;;;8.7;63.4
51227;BME280;42714;48.260;10.980;2024-03-07T15:00:38;971.4;;;8.5;63.4
51227;BME280;42714;48.260;10.980;2024-03-07T15:05:39;971.4;;;8.5;63.6
51227;BME280;42714;48.260;10.980;2024-03-07T15:10:42;971.3;;;8.7;63.3
51227;BME280;42714;48.260;10.980;2024-03-07T15:15:40;971.3;;;8.4;64.4
51227;BME280;42714;48.260;10.980;2024-03-07T15:20:41;971.3;;;8.0;64.8
51227;BME280;42714;48.260;10.980;2024-03-07T15:25:42;971.4;;;7.8;65.8
51227;BME280;42714;48.260;10.980;2024-03-07T15:30:43;971.3;;;8.0;65.5
51227;BME280;42714;48.260;10.980;2024-03-07T15:35:44;971.3;;;8.3;63.9
51227;BME280;42714;48.260;10.980;2024-03-07T15:40:45;971.2;;;8.7;62.6
51227;BME280;42714;48.260;10.980;2024-03-07T15:45:46;971.1;;;9.3;61.0
51227;BME280;42714;48.260;10.980;2024-03-07T15:50:47;971.1;;;9.7;59.7
51227;BME280;42714;48.260;10.980;2024-03-07T15:55:48;971.1;;;8.7;63.4
51227;BME280;42714;48.260;10.980;2024-03-07T16:00:49;971.2;;;8.0;66.6
51227;BME280;42714;48.260;10.980;2024-03-07T16:05:50;971.1;;;7.5;68.0
51227;BME280;42714;48.260;10.980;2024-03-07T16:10:51;971.1;;;7.3;69.5
51227;BME280;42714;48.260;10.980;2024-03-07T16:15:52;971.0;;;7.2;70.9
51227;BME280;42714;48.260;10.980;2024-03-07T16:20:53;971.0;;;7.0;71.7
51227;BME280;42714;48.260;10.980;2024-03-07T16:25:54;971.0;;;6.9;72.6
51227;BME280;42714;48.260;10.980;2024-03-07T16:30:55;971.0;;;6.8;73.5
51227;BME280;42714;48.260;10.980;2024-03-07T16:35:56;971.0;;;6.7;74.3
51227;BME280;42714;48.260;10.980;2024-03-07T16:40:57;971.0;;;6.7;75.4
51227;BME280;42714;48.260;10.980;2024-03-07T16:45:58;971.1;;;6.6;75.2
51227;BME280;42714;48.260;10.980;2024-03-07T16:50:59;971.1;;;6.6;75.0
51227;BME280;42714;48.260;10.980;2024-03-07T16:56:00;971.1;;;6.5;75.6
51227;BME280;42714;48.260;10.980;2024-03-07T17:01:01;971.1;;;6.5;75.8
51227;BME280;42714;48.260;10.980;2024-03-07T17:06:02;971.2;;;6.5;75.8
51227;BME280;42714;48.260;10.980;2024-03-07T17:11:03;971.2;;;6.3;76.0
51227;BME280;42714;48.260;10.980;2024-03-07T17:16:04;971.2;;;6.3;76.8
51227;BME280;42714;48.260;10.980;2024-03-07T17:21:05;971.2;;;6.2;77.3
51227;BME280;42714;48.260;10.980;2024-03-07T17:26:06;971.3;;;6.1;76.9
51227;BME280;42714;48.260;10.980;2024-03-07T17:31:07;971.3;;;6.1;74.3
51227;BME280;42714;48.260;10.980;2024-03-07T17:36:08;971.3;;;6.0;73.2
51227;BME280;42714;48.260;10.980;2024-03-07T17:41:11;971.4;;;5.9;73.0
51227;BME280;42714;48.260;10.980;2024-03-07T17:46:10;971.4;;;5.9;72.8
51227;BME280;42714;48.260;10.980;2024-03-07T17:51:11;971.4;;;5.9;73.2
51227;BME280;42714;48.260;10.980;2024-03-07T17:56:12;971.4;;;5.9;73.2
51227;BME280;42714;48.260;10.980;2024-03-07T18:01:13;971.4;;;5.8;72.9
51227;BME280;42714;48.260;10.980;2024-03-07T18:06:14;971.4;;;5.8;72.8
51227;BME280;42714;48.260;10.980;2024-03-07T18:11:18;971.4;;;5.6;72.7
51227;BME280;42714;48.260;10.980;2024-03-07T18:16:16;971.4;;;5.4;73.0
51227;BME280;42714;48.260;10.980;2024-03-07T18:21:17;971.4;;;5.2;73.4
51227;BME280;42714;48.260;10.980;2024-03-07T18:26:18;971.4;;;5.0;74.4
51227;BME280;42714;48.260;10.980;2024-03-07T18:31:19;971.4;;;4.9;74.9
51227;BME280;42714;48.260;10.980;2024-03-07T18:36:20;971.3;;;4.9;75.2
51227;BME280;42714;48.260;10.980;2024-03-07T18:41:21;971.3;;;4.8;75.7
51227;BME280;42714;48.260;10.980;2024-03-07T18:46:22;971.3;;;4.7;76.4
51227;BME280;42714;48.260;10.980;2024-03-07T18:51:23;971.2;;;4.6;76.9
51227;BME280;42714;48.260;10.980;2024-03-07T18:56:24;971.3;;;4.4;77.9
51227;BME280;42714;48.260;10.980;2024-03-07T19:01:26;971.3;;;4.3;78.8
51227;BME280;42714;48.260;10.980;2024-03-07T19:06:26;971.3;;;4.1;79.9
51227;BME280;42714;48.260;10.980;2024-03-07T19:11:27;971.3;;;4.0;80.8
51227;BME280;42714;48.260;10.980;2024-03-07T19:16:28;971.3;;;3.8;82.0
51227;BME280;42714;48.260;10.980;2024-03-07T19:21:29;971.2;;;3.8;83.0
51227;BME280;42714;48.260;10.980;2024-03-07T19:26:30;971.3;;;3.7;84.0
51227;BME280;42714;48.260;10.980;2024-03-07T19:31:31;971.2;;;3.6;85.1
51227;BME280;42714;48.260;10.980;2024-03-07T19:36:32;971.2;;;3.5;85.7
51227;BME280;42714;48.260;10.980;2024-03-07T19:41:33;971.2;;;3.4;86.7
51227;BME280;42714;48.260;10.980;2024-03-07T19:46:34;971.2;;;3.4;87.1
51227;BME280;42714;48.260;10.980;2024-03-07T19:51:35;971.1;;;3.2;88.2
51227;BME280;42714;48.260;10.980;2024-03-07T19:56:36;971.1;;;3.1;89.1
51227;BME280;42714;48.260;10.980;2024-03-07T20:01:38;971.1;;;3.0;90.2
51227;BME280;42714;48.260;10.980;2024-03-07T20:06:38;971.0;;;2.9;91.0
51227;BME280;42714;48.260;10.980;2024-03-07T20:11:39;971.0;;;2.9;91.3
51227;BME280;42714;48.260;10.980;2024-03-07T20:16:40;971.0;;;2.8;91.9
51227;BME280;42714;48.260;10.980;2024-03-07T20:21:41;971.0;;;2.7;92.8
51227;BME280;42714;48.260;10.980;2024-03-07T20:26:42;971.0;;;2.6;93.6
51227;BME280;42714;48.260;10.980;2024-03-07T20:31:43;971.1;;;2.6;94.3
51227;BME280;42714;48.260;10.980;2024-03-07T20:36:44;971.0;;;2.6;94.3
51227;BME280;42714;48.260;10.980;2024-03-07T20:41:47;971.1;;;2.5;94.7
51227;BME280;42714;48.260;10.980;2024-03-07T20:46:47;971.0;;;2.5;94.7
51227;BME280;42714;48.260;10.980;2024-03-07T20:51:47;971.0;;;2.5;94.9
51227;BME280;42714;48.260;10.980;2024-03-07T20:56:48;970.9;;;2.5;95.0
51227;BME280;42714;48.260;10.980;2024-03-07T21:01:49;970.9;;;2.4;95.3
51227;BME280;42714;48.260;10.980;2024-03-07T21:06:50;970.8;;;2.4;95.4
51227;BME280;42714;48.260;10.980;2024-03-07T21:11:51;970.7;;;2.3;95.6
51227;BME280;42714;48.260;10.980;2024-03-07T21:16:52;970.7;;;2.3;95.4
51227;BME280;42714;48.260;10.980;2024-03-07T21:21:53;970.7;;;2.3;95.3
51227;BME280;42714;48.260;10.980;2024-03-07T21:26:54;970.7;;;2.2;95.0
51227;BME280;42714;48.260;10.980;2024-03-07T21:31:55;970.7;;;2.3;94.2
51227;BME280;42714;48.260;10.980;2024-03-07T21:36:56;970.7;;;2.3;93.4
51227;BME280;42714;48.260;10.980;2024-03-07T21:41:58;970.7;;;2.3;93.0
51227;BME280;42714;48.260;10.980;2024-03-07T21:46:58;970.6;;;2.2;92.7
51227;BME280;42714;48.260;10.980;2024-03-07T21:51:59;970.5;;;2.2;92.5
51227;BME280;42714;48.260;10.980;2024-03-07T21:57:01;970.5;;;2.2;92.6
51227;BME280;42714;48.260;10.980;2024-03-07T22:02:02;970.5;;;2.0;93.3
51227;BME280;42714;48.260;10.980;2024-03-07T22:07:03;970.5;;;2.0;93.5
51227;BME280;42714;48.260;10.980;2024-03-07T22:17:05;970.4;;;1.9;94.1
51227;BME280;42714;48.260;10.980;2024-03-07T22:22:06;970.3;;;1.8;94.4
51227;BME280;42714;48.260;10.980;2024-03-07T22:27:06;970.3;;;1.9;94.9
51227;BME280;42714;48.260;10.980;2024-03-07T22:32:08;970.3;;;1.7;95.3
51227;BME280;42714;48.260;10.980;2024-03-07T22:37:09;970.2;;;1.7;95.6
51227;BME280;42714;48.260;10.980;2024-03-07T22:42:10;970.2;;;1.7;95.9
51227;BME280;42714;48.260;10.980;2024-03-07T22:47:11;970.1;;;1.6;96.3
51227;BME280;42714;48.260;10.980;2024-03-07T22:52:12;970.0;;;1.5;96.7
51227;BME280;42714;48.260;10.980;2024-03-07T22:57:13;970.0;;;1.5;97.0
51227;BME280;42714;48.260;10.980;2024-03-07T23:02:14;969.9;;;1.5;97.2
51227;BME280;42714;48.260;10.980;2024-03-07T23:07:15;969.8;;;1.5;97.2
51227;BME280;42714;48.260;10.980;2024-03-07T23:12:16;969.8;;;1.5;96.7
51227;BME280;42714;48.260;10.980;2024-03-07T23:17:17;969.7;;;1.5;96.3
51227;BME280;42714;48.260;10.980;2024-03-07T23:22:18;969.7;;;1.5;96.4
51227;BME280;42714;48.260;10.980;2024-03-07T23:27:19;969.7;;;1.5;96.3
51227;BME280;42714;48.260;10.980;2024-03-07T23:32:20;969.7;;;1.4;96.4
51227;BME280;42714;48.260;10.980;2024-03-07T23:37:22;969.7;;;1.3;96.7
51227;BME280;42714;48.260;10.980;2024-03-07T23:42:22;969.6;;;1.2;96.8
51227;BME280;42714;48.260;10.980;2024-03-07T23:47:23;969.6;;;1.2;96.9
51227;BME280;42714;48.260;10.980;2024-03-07T23:52:24;969.6;;;1.1;97.1
51227;BME280;42714;48.260;10.980;2024-03-07T23:57:25;969.6;;;1.1;97.2
